Montezuma, Indiana
Current Conditions -  °F | °C
As of 10:15 PM on Monday 26 Jan 2015 (Local Time) from KPRG Reporting Station
Unknown Precip Unknown Precip  
Wind Chill: 28°   Ceiling: 400
Heat Index: 28°   Visibility: 2.5mi
Dew Point: 28°   Wind: 3mph
Humidity: 99%   Direction: 40°NE
Pressure: 29.93"   Gusts: NA
Location:  39.79°N, 87.37°W
Report Text: KPRG 270315Z AUTO 04003KT 2 1/2SM UP BKN004 OVC009 M02/M02 A2993 RMK AO2 T10211023
Loading
Personal Weather Stations






























Interactive Weather Map New forecast layout! Learn more

10-Day Weather Forecast

Advertisements
Track Severe Weather on mobile